Terminal Aerodrome Forecast
Issued by NWS Upton, NY

Home | Current Version | Previous Version | Text Only | Print | Product List | Glossary On
Versions: 1 2 3 4 5 6 7 8 9 10 11 12 13 14 15 16 17 18 19 20 21 22 23 24 25 26 27 28 29 30
934
FTUS41 KOKX 020129 AAA
TAFLGA
TAF AMD
KLGA 020129Z 0201/0224 06010KT 5SM -DZ BR OVC006
     FM020400 06008KT 2SM -DZ BR OVC004
     FM021300 07007KT 3SM -DZ BR OVC007
     FM021800 VRB06KT 5SM BR SCT009 OVC015=

USA.gov is the U.S. government's official web portal to all federal, state and local government web resources and services.